createdAt,value
2017-05-14T00:00:06.140Z,71.80
2017-05-14T00:02:35.031Z,71.90
2017-05-14T00:05:03.956Z,72.00
2017-05-14T00:07:32.846Z,72.30
2017-05-14T00:10:01.733Z,72.60
2017-05-14T00:12:30.770Z,72.70
2017-05-14T00:14:59.660Z,72.60
2017-05-14T00:17:28.574Z,72.30
2017-05-14T00:19:58.241Z,72.30
2017-05-14T00:22:27.125Z,72.30
2017-05-14T00:24:56.026Z,72.20
2017-05-14T00:27:25.811Z,72.10
2017-05-14T00:29:54.718Z,72.30
2017-05-14T00:32:23.605Z,72.20
2017-05-14T00:34:52.520Z,72.80
2017-05-14T00:37:21.426Z,72.10
2017-05-14T00:39:50.322Z,72.20
2017-05-14T00:42:19.259Z,72.10
2017-05-14T00:44:48.883Z,72.00
2017-05-14T00:47:17.764Z,72.20
2017-05-14T00:49:47.533Z,71.40
2017-05-14T00:52:16.444Z,71.80
2017-05-14T00:54:45.331Z,72.20
2017-05-14T00:57:14.373Z,72.30
2017-05-14T00:59:43.268Z,73.40
2017-05-14T01:02:12.896Z,72.50
2017-05-14T01:04:41.845Z,72.60
2017-05-14T01:07:10.735Z,72.40
2017-05-14T01:09:39.625Z,73.10
2017-05-14T01:12:08.652Z,73.80
2017-05-14T01:14:38.296Z,73.60
2017-05-14T01:17:07.184Z,73.50
2017-05-14T01:19:36.121Z,73.40
2017-05-14T01:22:05.004Z,73.40
2017-05-14T01:24:33.938Z,73.20
2017-05-14T01:27:03.568Z,73.20
2017-05-14T01:29:32.460Z,73.70
2017-05-14T01:32:01.483Z,73.50
2017-05-14T01:34:30.363Z,73.40
2017-05-14T01:36:59.263Z,73.20
2017-05-14T01:39:28.184Z,73.40
2017-05-14T01:41:57.071Z,73.10
2017-05-14T01:44:25.959Z,73.10
2017-05-14T01:46:54.993Z,72.90
2017-05-14T01:49:23.889Z,72.90
2017-05-14T01:51:52.777Z,72.80
2017-05-14T01:54:21.701Z,72.70
2017-05-14T01:56:51.362Z,72.90
2017-05-14T01:59:20.261Z,73.00
2017-05-14T02:01:56.574Z,73.10
2017-05-14T02:04:26.238Z,73.10
2017-05-14T02:06:55.137Z,73.20
2017-05-14T02:09:25.275Z,73.40
2017-05-14T02:11:54.153Z,73.20
2017-05-14T02:14:23.069Z,74.30
2017-05-14T02:16:52.110Z,74.00
2017-05-14T02:19:21.021Z,74.50
2017-05-14T02:21:49.929Z,74.70
2017-05-14T02:24:18.866Z,74.50
2017-05-14T02:26:47.789Z,74.60
2017-05-14T02:29:16.681Z,75.40
2017-05-14T02:31:45.633Z,74.70
2017-05-14T02:34:14.550Z,74.80
2017-05-14T02:36:43.449Z,74.40
2017-05-14T02:39:13.223Z,74.70
2017-05-14T02:41:42.154Z,74.60
2017-05-14T02:44:11.801Z,74.50
2017-05-14T02:46:40.737Z,74.20
2017-05-14T02:49:09.633Z,74.40
2017-05-14T02:51:38.571Z,74.70
2017-05-14T02:54:07.642Z,75.10
2017-05-14T02:56:36.550Z,74.90
2017-05-14T02:59:06.194Z,74.70
2017-05-14T03:01:35.119Z,74.70
2017-05-14T03:04:04.040Z,74.70
2017-05-14T03:06:32.963Z,74.40
2017-05-14T03:09:01.897Z,75.10
2017-05-14T03:11:30.818Z,74.70
2017-05-14T03:13:59.718Z,74.40
2017-05-14T03:16:28.768Z,74.20
2017-05-14T03:18:57.678Z,74.20
2017-05-14T03:21:26.589Z,74.00
2017-05-14T03:23:55.522Z,73.90
2017-05-14T03:26:25.180Z,73.90
2017-05-14T03:28:54.061Z,74.80
2017-05-14T03:31:23.001Z,75.30
2017-05-14T03:33:51.898Z,75.00
2017-05-14T03:36:20.789Z,74.60
2017-05-14T03:38:49.833Z,74.50
2017-05-14T03:41:18.729Z,74.10
2017-05-14T03:43:47.626Z,73.90
2017-05-14T03:46:16.578Z,73.80
2017-05-14T03:48:45.486Z,73.60
2017-05-14T03:51:15.122Z,73.60
2017-05-14T03:53:44.072Z,73.40
2017-05-14T03:56:12.970Z,73.10
2017-05-14T03:58:41.907Z,73.30
2017-05-14T04:01:10.910Z,73.10
2017-05-14T04:03:39.805Z,73.10
2017-05-14T04:06:08.736Z,73.30
2017-05-14T04:08:37.629Z,73.30
2017-05-14T04:11:06.546Z,73.70
2017-05-14T04:13:35.469Z,74.00
2017-05-14T04:16:04.368Z,74.30
2017-05-14T04:18:33.270Z,74.70
2017-05-14T04:21:09.458Z,74.30
2017-05-14T04:23:38.522Z,74.60
2017-05-14T04:26:07.492Z,74.40
2017-05-14T04:28:36.405Z,74.40
2017-05-14T04:31:06.102Z,74.40
2017-05-14T04:33:34.993Z,74.50
2017-05-14T04:36:03.910Z,74.50
2017-05-14T04:38:33.678Z,74.50
2017-05-14T04:41:02.573Z,74.50
2017-05-14T04:43:31.579Z,74.50
2017-05-14T04:46:00.478Z,75.00
2017-05-14T04:48:29.376Z,74.90
2017-05-14T04:50:58.314Z,74.80
2017-05-14T04:53:27.250Z,74.80
2017-05-14T04:55:56.150Z,74.70
2017-05-14T04:58:25.182Z,74.60
2017-05-14T05:00:54.836Z,74.60
2017-05-14T05:03:23.725Z,74.60
2017-05-14T05:05:52.682Z,75.30
2017-05-14T05:08:22.314Z,75.40
2017-05-14T05:10:51.221Z,75.10
2017-05-14T05:13:20.173Z,75.00
2017-05-14T05:15:49.082Z,75.00
2017-05-14T05:18:18.721Z,75.10
2017-05-14T05:20:47.762Z,74.80
2017-05-14T05:23:16.677Z,74.60
2017-05-14T05:25:45.586Z,75.20
2017-05-14T05:28:14.540Z,74.20
2017-05-14T05:30:43.439Z,74.20
2017-05-14T05:33:12.350Z,74.00
2017-05-14T05:35:41.301Z,73.80
2017-05-14T05:38:10.218Z,73.60
2017-05-14T05:40:39.109Z,73.60
2017-05-14T05:43:08.872Z,73.90
2017-05-14T05:45:38.514Z,74.50
2017-05-14T05:48:07.420Z,74.40
2017-05-14T05:50:36.427Z,74.90
2017-05-14T05:53:05.370Z,74.40
2017-05-14T05:55:35.013Z,74.10
2017-05-14T05:58:03.938Z,74.20
2017-05-14T06:00:32.824Z,75.00
2017-05-14T06:03:01.729Z,76.40
2017-05-14T06:05:30.683Z,76.00
2017-05-14T06:07:59.585Z,75.80
2017-05-14T06:10:28.467Z,75.70
2017-05-14T06:12:59.189Z,76.40
2017-05-14T06:15:28.851Z,74.80
2017-05-14T06:17:57.829Z,73.80
2017-05-14T06:20:26.762Z,73.50
2017-05-14T06:22:55.649Z,72.10
2017-05-14T06:25:24.537Z,70.60
2017-05-14T06:28:00.899Z,71.20
2017-05-14T06:30:29.786Z,71.80
2017-05-14T06:32:58.696Z,70.90
2017-05-14T06:35:27.589Z,70.00
2017-05-14T06:37:56.472Z,70.40
2017-05-14T06:40:32.574Z,71.20
2017-05-14T06:43:01.456Z,70.00
2017-05-14T06:45:30.354Z,69.40
2017-05-14T06:47:59.284Z,69.80
2017-05-14T06:50:28.175Z,69.60
2017-05-14T06:52:57.857Z,71.90
2017-05-14T06:55:26.735Z,69.80
2017-05-14T06:57:55.641Z,71.50
2017-05-14T07:00:26.397Z,69.70
2017-05-14T07:02:56.025Z,73.00
2017-05-14T07:05:24.906Z,70.20
2017-05-14T07:07:54.583Z,70.40
2017-05-14T07:10:23.464Z,70.10
2017-05-14T07:12:52.358Z,68.30
2017-05-14T07:15:21.291Z,67.80
2017-05-14T07:17:50.158Z,68.00
2017-05-14T07:20:19.049Z,67.90
2017-05-14T07:22:48.003Z,66.80
2017-05-14T07:25:16.896Z,67.20
2017-05-14T07:27:45.793Z,67.40
2017-05-14T07:30:14.724Z,66.90
2017-05-14T07:32:43.606Z,66.90
2017-05-14T07:35:12.497Z,66.90
2017-05-14T07:37:41.420Z,67.80
2017-05-14T07:40:10.321Z,69.60
2017-05-14T07:42:39.212Z,66.30
2017-05-14T07:45:08.248Z,67.20
2017-05-14T07:47:37.902Z,66.20
2017-05-14T07:50:06.787Z,64.90
2017-05-14T07:52:47.105Z,65.40
2017-05-14T07:55:16.731Z,64.60
2017-05-14T07:57:45.617Z,66.50
2017-05-14T08:00:15.289Z,65.70
2017-05-14T08:02:44.170Z,65.60
2017-05-14T08:05:13.058Z,66.10
2017-05-14T08:07:41.965Z,68.70
2017-05-14T08:10:11.009Z,67.50
2017-05-14T08:12:40.649Z,65.80
2017-05-14T08:15:09.537Z,65.40
2017-05-14T08:17:38.468Z,65.70
2017-05-14T08:20:07.356Z,65.90
2017-05-14T08:22:36.248Z,64.60
2017-05-14T08:25:05.172Z,64.40
2017-05-14T08:27:34.073Z,63.90
2017-05-14T08:30:02.944Z,63.90
2017-05-14T08:32:39.190Z,64.60
2017-05-14T08:35:15.101Z,65.10
2017-05-14T08:37:44.860Z,65.00
2017-05-14T08:40:13.758Z,63.80
2017-05-14T08:42:42.665Z,63.90
2017-05-14T08:45:12.859Z,62.00
2017-05-14T08:47:41.744Z,62.20
2017-05-14T08:50:10.633Z,61.30
2017-05-14T08:52:39.554Z,63.00
2017-05-14T08:55:08.470Z,61.80
2017-05-14T08:57:37.361Z,62.80
2017-05-14T09:00:06.288Z,63.30
2017-05-14T09:02:35.926Z,63.60
2017-05-14T09:05:04.801Z,63.50
2017-05-14T09:07:34.569Z,64.30
2017-05-14T09:10:03.464Z,64.40
2017-05-14T09:12:32.354Z,61.20
2017-05-14T09:15:01.278Z,63.10
2017-05-14T09:17:30.206Z,62.00
2017-05-14T09:19:59.092Z,60.30
2017-05-14T09:22:28.722Z,57.60
2017-05-14T09:24:57.799Z,57.90
2017-05-14T09:27:26.717Z,57.90
2017-05-14T09:29:55.606Z,58.70
2017-05-14T09:32:24.532Z,59.40
2017-05-14T09:34:53.438Z,58.60
2017-05-14T09:37:22.394Z,61.30
2017-05-14T09:39:52.106Z,62.30
2017-05-14T09:42:20.994Z,59.10
2017-05-14T09:44:49.880Z,58.70
2017-05-14T09:47:19.614Z,60.40
2017-05-14T09:49:48.505Z,61.40
2017-05-14T09:52:17.406Z,59.70
2017-05-14T09:55:01.853Z,57.90
2017-05-14T09:57:30.726Z,59.60
2017-05-14T10:00:00.368Z,58.80
2017-05-14T10:02:29.338Z,57.70
2017-05-14T10:04:58.973Z,57.10
2017-05-14T10:07:27.861Z,55.80
2017-05-14T10:09:56.783Z,56.20
2017-05-14T10:12:25.652Z,57.60
2017-05-14T10:14:54.569Z,58.40
2017-05-14T10:17:24.689Z,58.60
2017-05-14T10:19:53.576Z,56.70
2017-05-14T10:22:22.470Z,55.50
2017-05-14T10:24:54.974Z,56.20
2017-05-14T10:27:23.865Z,54.00
2017-05-14T10:29:52.762Z,54.10
2017-05-14T10:32:21.687Z,52.80
2017-05-14T10:34:50.592Z,56.90
2017-05-14T10:37:20.226Z,55.50
2017-05-14T10:39:49.158Z,54.50
2017-05-14T10:42:18.151Z,56.00
2017-05-14T10:44:47.020Z,60.00
2017-05-14T10:47:23.253Z,54.60
2017-05-14T10:49:52.128Z,57.00
2017-05-14T10:52:21.002Z,54.80
2017-05-14T10:54:49.911Z,51.70
2017-05-14T10:57:32.170Z,52.40
2017-05-14T11:00:01.967Z,51.40
2017-05-14T11:02:30.857Z,49.30
2017-05-14T11:05:00.481Z,47.70
2017-05-14T11:07:30.076Z,48.50
2017-05-14T11:09:58.972Z,50.40
2017-05-14T11:12:28.573Z,52.50
2017-05-14T11:14:57.462Z,52.50
2017-05-14T11:17:26.401Z,49.20
2017-05-14T11:19:55.249Z,48.50
2017-05-14T11:22:24.134Z,48.50
2017-05-14T11:24:53.032Z,51.10
2017-05-14T11:27:21.909Z,51.00
2017-05-14T11:29:50.789Z,48.90
2017-05-14T11:32:27.041Z,49.40
2017-05-14T11:34:56.001Z,47.10
2017-05-14T11:37:24.884Z,49.10
2017-05-14T11:39:53.762Z,45.80
2017-05-14T11:42:22.629Z,42.50
2017-05-14T11:44:53.290Z,44.50
2017-05-14T11:47:22.149Z,44.50
2017-05-14T11:49:51.024Z,44.20
2017-05-14T11:52:20.645Z,44.30
2017-05-14T11:54:49.529Z,42.40
2017-05-14T11:57:18.405Z,43.10
2017-05-14T11:59:49.329Z,43.60
2017-05-14T12:02:18.202Z,43.50
2017-05-14T12:04:47.058Z,43.40
2017-05-14T12:07:16.137Z,41.80
2017-05-14T12:09:44.993Z,43.80
2017-05-14T12:12:13.866Z,39.80
2017-05-14T12:14:43.586Z,42.50
2017-05-14T12:17:12.469Z,42.10
2017-05-14T12:19:41.402Z,41.30
2017-05-14T12:22:10.271Z,42.20
2017-05-14T12:24:39.135Z,41.50
2017-05-14T12:27:09.840Z,40.50
2017-05-14T12:29:38.695Z,40.90
2017-05-14T12:32:07.563Z,42.30
2017-05-14T12:34:36.493Z,40.70
2017-05-14T12:37:05.372Z,37.60
2017-05-14T12:39:34.238Z,37.90
2017-05-14T12:42:03.138Z,37.20
2017-05-14T12:44:32.037Z,40.40
2017-05-14T12:47:01.658Z,41.40
2017-05-14T12:49:31.521Z,41.10
2017-05-14T12:52:00.385Z,39.90
2017-05-14T12:54:29.249Z,40.10
2017-05-14T12:56:58.155Z,41.30
2017-05-14T12:59:27.031Z,42.00
2017-05-14T13:01:56.665Z,39.90
2017-05-14T13:04:25.533Z,41.10
2017-05-14T13:06:55.137Z,41.90
2017-05-14T13:09:32.634Z,41.60
2017-05-14T13:12:02.328Z,40.40
2017-05-14T13:14:31.234Z,41.10
2017-05-14T13:17:00.110Z,38.70
2017-05-14T13:19:28.988Z,39.50
2017-05-14T13:21:57.937Z,37.60
2017-05-14T13:24:26.776Z,39.30
2017-05-14T13:26:55.633Z,40.40
2017-05-14T13:29:24.672Z,40.90
2017-05-14T13:31:53.534Z,39.80
2017-05-14T13:34:22.393Z,38.40
2017-05-14T13:36:52.021Z,40.30
2017-05-14T13:39:20.903Z,40.90
2017-05-14T13:41:50.534Z,40.10
2017-05-14T13:44:19.433Z,40.00
2017-05-14T13:46:56.262Z,43.20
2017-05-14T13:49:32.342Z,39.90
2017-05-14T13:52:03.196Z,40.00
2017-05-14T13:54:46.957Z,39.80
2017-05-14T13:57:15.854Z,38.00
2017-05-14T13:59:44.714Z,38.00
2017-05-14T14:02:14.342Z,39.00
2017-05-14T14:04:50.598Z,38.20
2017-05-14T14:07:19.572Z,38.30
2017-05-14T14:09:49.250Z,38.00
2017-05-14T14:12:18.150Z,40.00
2017-05-14T14:14:47.027Z,38.20
2017-05-14T14:17:15.882Z,39.00
2017-05-14T14:19:44.844Z,37.10
2017-05-14T14:22:13.730Z,38.10
2017-05-14T14:24:42.613Z,39.00
2017-05-14T14:27:11.541Z,38.60
2017-05-14T14:29:40.395Z,41.50
2017-05-14T14:32:09.269Z,44.10
2017-05-14T14:34:38.208Z,46.00
2017-05-14T14:37:07.841Z,49.00
2017-05-14T14:39:37.448Z,50.60
2017-05-14T14:42:13.721Z,51.50
2017-05-14T14:44:42.710Z,52.90
2017-05-14T14:47:11.670Z,54.10
2017-05-14T14:49:40.561Z,53.90
2017-05-14T14:52:09.461Z,58.30
2017-05-14T14:54:38.377Z,56.40
2017-05-14T14:57:23.490Z,57.90
2017-05-14T14:59:54.990Z,57.70
2017-05-14T15:02:24.633Z,58.70
2017-05-14T15:04:53.520Z,58.30
2017-05-14T15:07:22.458Z,58.80
2017-05-14T15:09:51.345Z,60.30
2017-05-14T15:12:20.238Z,59.90
2017-05-14T15:14:51.027Z,61.60
2017-05-14T15:17:20.653Z,62.80
2017-05-14T15:19:49.548Z,64.60
2017-05-14T15:22:18.485Z,66.10
2017-05-14T15:24:47.374Z,66.90
2017-05-14T15:27:16.272Z,67.90
2017-05-14T15:29:45.207Z,68.30
2017-05-14T15:32:14.852Z,69.80
2017-05-14T15:34:43.751Z,69.90
2017-05-14T15:37:20.232Z,69.70
2017-05-14T15:39:50.860Z,70.80
2017-05-14T15:42:21.042Z,71.40
2017-05-14T15:44:50.665Z,71.70
2017-05-14T15:47:19.555Z,70.20
2017-05-14T15:49:49.253Z,70.70
2017-05-14T15:52:18.177Z,70.70
2017-05-14T15:54:47.069Z,70.30
2017-05-14T15:57:15.964Z,70.20
2017-05-14T15:59:47.806Z,69.70
2017-05-14T16:02:17.437Z,69.40
2017-05-14T16:04:46.317Z,69.00
2017-05-14T16:07:16.117Z,68.90
2017-05-14T16:09:45.055Z,68.90
2017-05-14T16:12:13.982Z,68.90
2017-05-14T16:14:42.876Z,69.50
2017-05-14T16:17:11.797Z,69.50
2017-05-14T16:19:40.699Z,68.60
2017-05-14T16:22:10.335Z,69.10
2017-05-14T16:24:47.791Z,68.30
2017-05-14T16:27:23.804Z,67.80
2017-05-14T16:29:52.825Z,67.80
2017-05-14T16:32:21.726Z,67.30
2017-05-14T16:34:50.634Z,66.90
2017-05-14T16:37:19.543Z,67.10
2017-05-14T16:39:49.182Z,67.30
2017-05-14T16:42:18.077Z,67.60
2017-05-14T16:44:47.816Z,68.80
2017-05-14T16:47:16.710Z,69.00
2017-05-14T16:49:45.643Z,68.90
2017-05-14T16:52:14.531Z,69.50
2017-05-14T16:54:43.456Z,68.80
2017-05-14T16:57:13.102Z,68.40
2017-05-14T16:59:41.993Z,68.70
2017-05-14T17:02:11.895Z,69.10
2017-05-14T17:04:40.797Z,69.10
2017-05-14T17:07:09.710Z,68.60
2017-05-14T17:09:38.625Z,68.70
2017-05-14T17:12:07.523Z,68.90
2017-05-14T17:14:36.411Z,68.90
2017-05-14T17:17:07.793Z,68.10
2017-05-14T17:19:37.432Z,67.80
2017-05-14T17:22:06.322Z,67.50
2017-05-14T17:24:35.232Z,67.80
2017-05-14T17:27:04.179Z,67.30
2017-05-14T17:29:33.095Z,67.10
2017-05-14T17:32:02.730Z,66.90
2017-05-14T17:34:39.191Z,66.60
2017-05-14T17:37:15.246Z,66.90
2017-05-14T17:39:45.458Z,66.70
2017-05-14T17:42:15.094Z,66.10
2017-05-14T17:44:44.002Z,65.80
2017-05-14T17:47:12.953Z,65.90
2017-05-14T17:49:42.608Z,66.00
2017-05-14T17:52:11.520Z,66.20
2017-05-14T17:54:51.598Z,66.10
2017-05-14T17:57:20.561Z,65.90
2017-05-14T17:59:49.481Z,65.70
2017-05-14T18:02:18.389Z,65.60
2017-05-14T18:04:48.066Z,66.00
2017-05-14T18:07:16.982Z,65.40
2017-05-14T18:09:47.641Z,65.40
2017-05-14T18:12:17.300Z,65.30
2017-05-14T18:14:46.264Z,65.40
2017-05-14T18:17:15.888Z,65.40
2017-05-14T18:19:44.792Z,65.20
2017-05-14T18:22:13.741Z,65.10
2017-05-14T18:24:42.685Z,64.90
2017-05-14T18:27:11.600Z,64.90
2017-05-14T18:29:47.581Z,65.00
2017-05-14T18:32:24.159Z,65.10
2017-05-14T18:34:53.898Z,65.40
2017-05-14T18:37:22.858Z,65.30
2017-05-14T18:39:51.796Z,65.10
2017-05-14T18:42:28.530Z,65.20
2017-05-14T18:44:57.588Z,65.10
2017-05-14T18:47:26.482Z,65.10
2017-05-14T18:49:55.438Z,64.90
2017-05-14T18:52:25.066Z,65.10
2017-05-14T18:55:09.061Z,65.20
2017-05-14T18:57:37.956Z,65.00
2017-05-14T19:00:06.950Z,65.00
2017-05-14T19:02:35.838Z,65.30
2017-05-14T19:05:04.747Z,65.20
2017-05-14T19:07:33.650Z,65.10
2017-05-14T19:10:02.561Z,65.10
2017-05-14T19:12:32.223Z,65.30
2017-05-14T19:15:01.140Z,65.20
2017-05-14T19:17:30.077Z,65.30
2017-05-14T19:19:59.012Z,65.50
2017-05-14T19:22:27.907Z,65.60
2017-05-14T19:24:56.865Z,65.60
2017-05-14T19:27:26.560Z,65.40
2017-05-14T19:29:55.518Z,65.50
2017-05-14T19:32:24.485Z,65.60
2017-05-14T19:34:53.440Z,65.80
2017-05-14T19:37:29.518Z,65.70
2017-05-14T19:39:59.250Z,65.70
2017-05-14T19:42:28.286Z,65.70
2017-05-14T19:44:57.309Z,65.80
2017-05-14T19:47:26.190Z,65.90
2017-05-14T19:49:55.113Z,66.00
2017-05-14T19:52:24.075Z,66.30
2017-05-14T19:55:04.593Z,66.40
2017-05-14T19:57:33.519Z,66.20
2017-05-14T20:00:02.451Z,67.80
2017-05-14T20:02:31.377Z,67.00
2017-05-14T20:05:00.274Z,66.80
2017-05-14T20:07:36.518Z,66.90
2017-05-14T20:10:06.129Z,66.70
2017-05-14T20:12:36.360Z,66.90
2017-05-14T20:15:05.247Z,66.80
2017-05-14T20:17:34.129Z,67.30
2017-05-14T20:20:03.813Z,66.70
2017-05-14T20:22:32.730Z,66.80
2017-05-14T20:25:02.368Z,67.00
2017-05-14T20:27:33.027Z,66.90
2017-05-14T20:30:01.909Z,66.90
2017-05-14T20:32:30.829Z,67.50
2017-05-14T20:34:59.718Z,67.70
2017-05-14T20:37:28.617Z,67.80
2017-05-14T20:39:57.537Z,67.60
2017-05-14T20:42:28.279Z,67.80
2017-05-14T20:44:57.173Z,69.40
2017-05-14T20:47:26.114Z,69.10
2017-05-14T20:49:54.993Z,69.30
2017-05-14T20:52:23.957Z,69.30
2017-05-14T20:54:52.841Z,68.90
2017-05-14T20:57:33.456Z,70.40
2017-05-14T21:00:02.373Z,70.60
2017-05-14T21:02:31.281Z,70.20
2017-05-14T21:05:00.184Z,69.70
2017-05-14T21:07:29.074Z,70.00
2017-05-14T21:09:58.002Z,69.60
2017-05-14T21:12:27.678Z,69.80
2017-05-14T21:14:56.572Z,69.70
2017-05-14T21:17:26.427Z,69.60
2017-05-14T21:19:56.088Z,69.20
2017-05-14T21:22:24.969Z,69.10
2017-05-14T21:24:54.008Z,69.20
2017-05-14T21:27:22.897Z,69.40
2017-05-14T21:29:51.836Z,69.30
2017-05-14T21:32:21.453Z,69.00
2017-05-14T21:34:50.418Z,69.50
2017-05-14T21:37:20.057Z,69.60
2017-05-14T21:39:48.959Z,69.00
2017-05-14T21:42:18.616Z,69.10
2017-05-14T21:44:47.650Z,69.10
2017-05-14T21:47:17.292Z,69.30
2017-05-14T21:49:46.238Z,69.50
2017-05-14T21:52:15.138Z,70.10
2017-05-14T21:54:44.056Z,70.70
2017-05-14T21:57:12.957Z,70.90
2017-05-14T21:59:44.698Z,70.50
2017-05-14T22:02:14.330Z,69.80
2017-05-14T22:04:44.573Z,69.60
2017-05-14T22:07:13.465Z,69.50
2017-05-14T22:09:42.355Z,69.50
2017-05-14T22:12:13.183Z,69.20
2017-05-14T22:14:42.798Z,69.20
2017-05-14T22:17:11.694Z,68.90
2017-05-14T22:19:40.617Z,69.70
2017-05-14T22:22:09.505Z,69.90
2017-05-14T22:24:38.413Z,70.00
2017-05-14T22:27:07.326Z,70.00
2017-05-14T22:29:37.996Z,70.10
2017-05-14T22:32:06.897Z,70.80
2017-05-14T22:34:35.789Z,70.40
2017-05-14T22:37:04.727Z,70.10
2017-05-14T22:39:33.626Z,70.00
2017-05-14T22:42:02.547Z,70.30
2017-05-14T22:44:31.449Z,69.90
2017-05-14T22:47:00.470Z,69.70
2017-05-14T22:49:29.365Z,69.20
2017-05-14T22:51:58.247Z,69.60
2017-05-14T22:54:37.890Z,69.60
2017-05-14T22:57:06.777Z,69.20
2017-05-14T22:59:36.442Z,69.70
2017-05-14T23:02:05.338Z,69.60
2017-05-14T23:04:34.264Z,69.40
2017-05-14T23:07:03.909Z,69.40
2017-05-14T23:09:32.815Z,69.40
2017-05-14T23:12:01.731Z,69.40
2017-05-14T23:14:30.753Z,69.50
2017-05-14T23:16:59.658Z,69.70
2017-05-14T23:19:28.571Z,70.90
2017-05-14T23:21:58.234Z,71.80
2017-05-14T23:24:27.134Z,73.20
2017-05-14T23:26:56.025Z,73.10
2017-05-14T23:29:25.063Z,73.00
2017-05-14T23:31:53.946Z,73.10
2017-05-14T23:34:22.832Z,73.40
2017-05-14T23:36:51.781Z,74.40
2017-05-14T23:39:20.674Z,76.20
2017-05-14T23:41:49.565Z,76.90
2017-05-14T23:44:18.517Z,76.80
2017-05-14T23:46:47.405Z,76.80
2017-05-14T23:49:16.301Z,76.20
2017-05-14T23:51:46.025Z,75.70
2017-05-14T23:54:14.972Z,75.40
2017-05-14T23:56:43.860Z,74.70
2017-05-14T23:59:12.737Z,74.20
